Map

Track Data

SID SEASON NUMBER BASIN SUBBASIN NAME ISO_TIME NATURE LAT LON WMO_WIND WMO_PRES WMO_AGENCY TRACK_TYPE DIST2LAND LANDFALL IFLAG USA_AGENCY USA_ATCF_ID USA_LAT USA_LON USA_RECORD USA_STATUS USA_WIND USA_PRES USA_SSHS USA_R34_NE USA_R34_SE USA_R34_SW USA_R34_NW USA_R50_NE USA_R50_SE USA_R50_SW USA_R50_NW USA_R64_NE USA_R64_SE USA_R64_SW USA_R64_NW USA_POCI USA_ROCI USA_RMW USA_EYE TOKYO_LAT TOKYO_LON TOKYO_GRADE TOKYO_WIND TOKYO_PRES TOKYO_R50_DIR TOKYO_R50_LONG TOKYO_R50_SHORT TOKYO_R30_DIR TOKYO_R30_LONG TOKYO_R30_SHORT TOKYO_LAND CMA_LAT CMA_LON CMA_CAT CMA_WIND CMA_PRES HKO_LAT HKO_LON HKO_CAT HKO_WIND HKO_PRES NEWDELHI_LAT NEWDELHI_LON NEWDELHI_GRADE NEWDELHI_WIND NEWDELHI_PRES NEWDELHI_CI NEWDELHI_DP NEWDELHI_POCI REUNION_LAT REUNION_LON REUNION_TYPE REUNION_WIND REUNION_PRES REUNION_TNUM REUNION_CI REUNION_RMW REUNION_R34_NE REUNION_R34_SE REUNION_R34_SW REUNION_R34_NW REUNION_R50_NE REUNION_R50_SE REUNION_R50_SW REUNION_R50_NW REUNION_R64_NE REUNION_R64_SE REUNION_R64_SW REUNION_R64_NW BOM_LAT BOM_LON BOM_TYPE BOM_WIND BOM_PRES BOM_TNUM BOM_CI BOM_RMW BOM_R34_NE BOM_R34_SE BOM_R34_SW BOM_R34_NW BOM_R50_NE BOM_R50_SE BOM_R50_SW BOM_R50_NW BOM_R64_NE BOM_R64_SE BOM_R64_SW BOM_R64_NW BOM_ROCI BOM_POCI BOM_EYE BOM_POS_METHOD BOM_PRES_METHOD NADI_LAT NADI_LON NADI_CAT NADI_WIND NADI_PRES WELLINGTON_LAT WELLINGTON_LON WELLINGTON_WIND WELLINGTON_PRES DS824_LAT DS824_LON DS824_STAGE DS824_WIND DS824_PRES TD9636_LAT TD9636_LON TD9636_STAGE TD9636_WIND TD9636_PRES TD9635_LAT TD9635_LON TD9635_WIND TD9635_PRES TD9635_ROCI NEUMANN_LAT NEUMANN_LON NEUMANN_CLASS NEUMANN_WIND NEUMANN_PRES MLC_LAT MLC_LON MLC_CLASS MLC_WIND MLC_PRES USA_GUST BOM_GUST BOM_GUST_PER REUNION_GUST REUNION_GUST_PER USA_SEAHGT USA_SEARAD_NE USA_SEARAD_SE USA_SEARAD_SW USA_SEARAD_NW STORM_SPEED STORM_DIR
1920032S17421 1920 3 SI MM NOT_NAMED 1920-01-31 18:00:00 NR -17.1000 61.1000 main 490 475 __________O___ -1 -17.1000 61.1000 7 5 265
1920032S17421 1920 3 SI MM NOT_NAMED 1920-01-31 21:00:00 NR -17.1236 60.8407 main 468 453 __________P___ -1 -17.1236 60.8407 7 5 265
1920032S17421 1920 3 SI MM NOT_NAMED 1920-02-01 00:00:00 NR -17.1477 60.5751 main 453 424 __________P___ -1 -17.1477 60.5751 7 5 265
1920032S17421 1920 3 SI MM NOT_NAMED 1920-02-01 03:00:00 NR -17.1729 60.2970 main 424 404 __________P___ -1 -17.1729 60.2970 7 6 265
1920032S17421 1920 3 SI MM NOT_NAMED 1920-02-01 06:00:00 NR -17.2000 60.0000 main 404 386 __________O___ -1 -17.2000 60.0000 7 6 264
1920032S17421 1920 3 SI MM NOT_NAMED 1920-02-01 09:00:00 NR -17.2305 59.6795 main 386 360 __________P___ -1 -17.2305 59.6795 7 6 264
1920032S17421 1920 3 SI MM NOT_NAMED 1920-02-01 12:00:00 NR -17.2698 59.3372 main 355 341 __________P___ -1 -17.2698 59.3372 7 7 262
1920032S17421 1920 3 SI MM NOT_NAMED 1920-02-01 15:00:00 NR -17.3242 58.9763 main 341 316 __________P___ -1 -17.3242 58.9763 7 7 260
1920032S17421 1920 3 SI MM NOT_NAMED 1920-02-01 18:00:00 NR -17.4000 58.6000 main 316 295 __________O___ -1 -17.4000 58.6000 7 8 256
1920032S17421 1920 3 SI MM NOT_NAMED 1920-02-01 21:00:00 NR -17.5034 58.2104 main 295 279 __________P___ -1 -17.5034 58.2104 7 8 253
1920032S17421 1920 3 SI MM NOT_NAMED 1920-02-02 00:00:00 NR -17.6274 57.8076 main 279 257 __________P___ -1 -17.6274 57.8076 7 8 251
1920032S17421 1920 3 SI MM NOT_NAMED 1920-02-02 03:00:00 NR -17.7628 57.4010 main 257 249 __________P___ -1 -17.7628 57.4010 7 8 250
1920032S17421 1920 3 SI MM NOT_NAMED 1920-02-02 06:00:00 NR -17.9000 57.0000 main 251 246 __________O___ -1 -17.9000 57.0000 7 8 251
1920032S17421 1920 3 SI MM NOT_NAMED 1920-02-02 09:00:00 NR -18.0207 56.6135 main 253 247 __________P___ -1 -18.0207 56.6135 7 8 252
1920032S17421 1920 3 SI MM NOT_NAMED 1920-02-02 12:00:00 NR -18.1422 56.2347 main 262 252 __________P___ -1 -18.1422 56.2347 7 8 251
1920032S17421 1920 3 SI MM NOT_NAMED 1920-02-02 15:00:00 NR -18.2676 55.8635 main 262 262 __________P___ -1 -18.2676 55.8635 7 7 250
1920032S17421 1920 3 SI MM NOT_NAMED 1920-02-02 18:00:00 NR -18.4000 55.5000 main 283 279 __________O___ -1 -18.4000 55.5000 7 8 250
1920032S17421 1920 3 SI MM NOT_NAMED 1920-02-02 21:00:00 NR -18.5266 55.1143 main 280 262 __________P___ -1 -18.5266 55.1143 7 8 250
1920032S17421 1920 3 SI MM NOT_NAMED 1920-02-03 00:00:00 NR -18.6626 54.7399 main 264 259 __________P___ -1 -18.6626 54.7399 7 7 247
1920032S17421 1920 3 SI MM NOT_NAMED 1920-02-03 03:00:00 NR -18.8173 54.3955 main 263 251 __________P___ -1 -18.8173 54.3955 7 7 241
1920032S17421 1920 3 SI MM NOT_NAMED 1920-02-03 06:00:00 NR -19.0000 54.1000 main 256 248 __________O___ -1 -19.0000 54.1000 7 7 232
1920032S17421 1920 3 SI MM NOT_NAMED 1920-02-03 09:00:00 NR -19.2291 53.8464 main 255 236 __________P___ -1 -19.2291 53.8464 7 7 222
1920032S17421 1920 3 SI MM NOT_NAMED 1920-02-03 12:00:00 NR -19.4847 53.6452 main 244 236 __________P___ -1 -19.4847 53.6452 7 6 213
1920032S17421 1920 3 SI MM NOT_NAMED 1920-02-03 15:00:00 NR -19.7480 53.4964 main 236 224 __________P___ -1 -19.7480 53.4964 7 6 204
1920032S17421 1920 3 SI MM NOT_NAMED 1920-02-03 18:00:00 NR -20.0000 53.4000 main 224 218 __________O___ -1 -20.0000 53.4000 7 5 200
1920032S17421 1920 3 SI MM NOT_NAMED 1920-02-03 21:00:00 NR -20.2142 53.3171 main 221 212 __________P___ -1 -20.2142 53.3171 7 4 194
1920032S17421 1920 3 SI MM NOT_NAMED 1920-02-04 00:00:00 NR -20.4147 53.2875 main 212 205 __________P___ -1 -20.4147 53.2875 7 4 0
1920032S17421 1920 3 SI MM NOT_NAMED 1920-02-04 03:00:00 NR -20.6079 53.3142 main 205 189 __________P___ -1 -20.6079 53.3142 7 4 165
1920032S17421 1920 3 SI MM NOT_NAMED 1920-02-04 06:00:00 NR -20.8000 53.4000 main 189 176 __________O___ -1 -20.8000 53.4000 7 5 153
1920032S17421 1920 3 SI MM NOT_NAMED 1920-02-04 09:00:00 NR -21.0081 53.5301 main 176 155 __________P___ -1 -21.0081 53.5301 7 5 144
1920032S17421 1920 3 SI MM NOT_NAMED 1920-02-04 12:00:00 NR -21.2150 53.7173 main 155 136 __________P___ -1 -21.2150 53.7173 7 6 136
1920032S17421 1920 3 SI MM NOT_NAMED 1920-02-04 15:00:00 NR -21.4143 53.9458 main 138 117 __________P___ -1 -21.4143 53.9458 7 6 131
1920032S17421 1920 3 SI MM NOT_NAMED 1920-02-04 18:00:00 NR -21.6000 54.2000 main 117 103 __________O___ -1 -21.6000 54.2000 7 5 130
1920032S17421 1920 3 SI MM NOT_NAMED 1920-02-04 21:00:00 NR -21.7424 54.3657 main 103 98 __________P___ -1 -21.7424 54.3657 7 4 129
1920032S17421 1920 3 SI MM NOT_NAMED 1920-02-05 00:00:00 NR -21.8747 54.5651 main 98 91 __________P___ -1 -21.8747 54.5651 7 5 121
1920032S17421 1920 3 SI MM NOT_NAMED 1920-02-05 03:00:00 NR -22.0197 54.8569 main 88 88 __________P___ -1 -22.0197 54.8569 7 8 115
1920032S17421 1920 3 SI MM NOT_NAMED 1920-02-05 06:00:00 NR -22.2000 55.3000 main 94 91 __________O___ -1 -22.2000 55.3000 7 11 112
1920032S17421 1920 3 SI MM NOT_NAMED 1920-02-05 09:00:00 NR -22.4582 56.0013 main 129 129 __________P___ -1 -22.4582 56.0013 7 15 111
1920032S17421 1920 3 SI MM NOT_NAMED 1920-02-05 12:00:00 NR -22.7466 56.8496 main 187 187 __________P___ -1 -22.7466 56.8496 7 17 110
1920032S17421 1920 3 SI MM NOT_NAMED 1920-02-05 15:00:00 NR -23.0363 57.7484 main 272 272 __________P___ -1 -23.0363 57.7484 7 17 109
1920032S17421 1920 3 SI MM NOT_NAMED 1920-02-05 18:00:00 NR -23.3000 58.6000 main 326 326 __________O___ -1 -23.3000 58.6000 7 15 108
1920032S17421 1920 3 SI MM NOT_NAMED 1920-02-05 21:00:00 NR -23.5190 59.3280 main 373 373 __________P___ -1 -23.5190 59.3280 7 13 108
1920032S17421 1920 3 SI MM NOT_NAMED 1920-02-06 00:00:00 NR -23.7003 59.9461 main 423 423 __________P___ -1 -23.7003 59.9461 7 11 108
1920032S17421 1920 3 SI MM NOT_NAMED 1920-02-06 03:00:00 NR -23.8567 60.4911 main 476 476 __________P___ -1 -23.8567 60.4911 7 10 107
1920032S17421 1920 3 SI MM NOT_NAMED 1920-02-06 06:00:00 NR -24.0000 61.0000 main 517 __________O___ -1 -24.0000 61.0000 7 10 107

About IBTrACS Database

This database is a web-friendly format of International Best Track Archive for Climate Stewardship (IBTrACS), a global best track data archive curated by NOAA dating back to 1842.

Updated: 2021-10-21